Pagrindinis puslapis
METAR-TAF:

METAR-TAF

Oro uostai :

Wittering, Anglija

platuma: 52-37N, ilguma: 000-28W, Aukštis: 84 m

Dabartinis oras

Ataskaita buvo paskelbta 1 valandą ir 14 minutes, ne 19:50 UTC
Vėjas 7 kt iš Vakarų
Temperatūra 1°C
Drėgmė 93%
Slėgis 1043 hPa
Matomumas 10 km arba daugiau

METAR: EGXT 201950Z AUTO 26007KT 9999 NCD 01/M00 Q1043

Laikas: 21:04 (21:04 UTC)

Prognozė

Ataskaita buvo paskelbta 7 valandos ir 26 minutes, ne 13:38 UTC
Prognozė galioja nuo 20 metu 15 UTC su 20 metu 18 UTC
Vėjas 8 kt iš Vakarų/Pietvakarių
Matomumas 10 km arba daugiau
nėra debesų žemiau 1500 m ir nėra kamuolinių lietaus debesų
Tapsmas
nuo 20 metu 16 UTC su 20 metu 18 UTC
Matomumas: 7000 m
migla

TAF: EGXT 201338Z 2015/2018 25008KT CAVOK BECMG 2016/2018 7000 HZ

Orai ataskaitas ir orų prognozės (METAR, TAF).

turimą stotys yra geltonos ir raudonos taškus žemėlapyje.

Perkelti pele per norėdami pamatyti stoties vardą.

Tada spustelėkite, norėdami matyti oro stebėjimo ir prognozės.

Norėdami pakeisti žemėlapį: spustelėkite ant žalios mygtukų su juodo kryžiaus žemyn,; žalią mygtuką su brūkšneliu, jei norite nutolinti; arba žalių rodyklių gretimoms žemėlapius.


METAR-TAF: